sensor_id;sensor_type;location;lat;lon;timestamp;temperature;humidity
63094;DHT22;49183;51.380;0.098;2023-04-25T13:44:18;12.90;42.60
63094;DHT22;49183;51.380;0.098;2023-04-25T13:50:18;13.40;41.10
63094;DHT22;49183;51.380;0.098;2023-04-25T13:52:45;13.50;40.40
63094;DHT22;49183;51.380;0.098;2023-04-25T13:55:13;13.60;41.00
63094;DHT22;49183;51.380;0.098;2023-04-25T13:57:41;13.90;41.00
63094;DHT22;49183;51.380;0.098;2023-04-25T14:00:11;14.10;40.90
63094;DHT22;49183;51.380;0.098;2023-04-25T14:02:40;14.30;40.30
63094;DHT22;49183;51.380;0.098;2023-04-25T14:05:08;14.40;39.50
63094;DHT22;49183;51.380;0.098;2023-04-25T14:07:37;14.40;39.50
63094;DHT22;49183;51.380;0.098;2023-04-25T14:10:05;14.60;39.00
63094;DHT22;49183;51.380;0.098;2023-04-25T14:12:33;14.60;38.60
63094;DHT22;49183;51.380;0.098;2023-04-25T14:15:01;14.80;38.80
63094;DHT22;49183;51.380;0.098;2023-04-25T14:17:28;15.00;38.00
63094;DHT22;49183;51.380;0.098;2023-04-25T14:19:56;15.20;38.40
63094;DHT22;49183;51.380;0.098;2023-04-25T14:22:24;15.30;38.60
63094;DHT22;49183;51.380;0.098;2023-04-25T14:24:52;15.50;38.30
63094;DHT22;49183;51.380;0.098;2023-04-25T14:27:20;15.40;37.40
63094;DHT22;49183;51.380;0.098;2023-04-25T14:29:47;15.10;36.20
63094;DHT22;49183;51.380;0.098;2023-04-25T14:32:15;14.80;36.60
63094;DHT22;49183;51.380;0.098;2023-04-25T14:34:43;14.60;36.70
63094;DHT22;49183;51.380;0.098;2023-04-25T14:37:11;14.40;36.60
63094;DHT22;49183;51.380;0.098;2023-04-25T14:39:38;14.30;37.30
63094;DHT22;49183;51.380;0.098;2023-04-25T14:42:06;14.20;37.10
63094;DHT22;49183;51.380;0.098;2023-04-25T14:44:34;14.20;36.90
63094;DHT22;49183;51.380;0.098;2023-04-25T14:47:02;14.30;37.10
63094;DHT22;49183;51.380;0.098;2023-04-25T14:49:30;14.60;37.30
63094;DHT22;49183;51.380;0.098;2023-04-25T14:51:57;14.60;36.80
63094;DHT22;49183;51.380;0.098;2023-04-25T14:54:25;14.50;36.90
63094;DHT22;49183;51.380;0.098;2023-04-25T14:57:01;14.30;36.70
63094;DHT22;49183;51.380;0.098;2023-04-25T14:59:29;13.90;37.00
63094;DHT22;49183;51.380;0.098;2023-04-25T15:01:57;13.50;37.00
63094;DHT22;49183;51.380;0.098;2023-04-25T15:04:26;13.20;37.40
63094;DHT22;49183;51.380;0.098;2023-04-25T15:06:54;12.90;37.80
63094;DHT22;49183;51.380;0.098;2023-04-25T15:09:22;12.90;38.30
63094;DHT22;49183;51.380;0.098;2023-04-25T15:11:51;12.80;38.50
63094;DHT22;49183;51.380;0.098;2023-04-25T15:14:19;12.80;38.80
63094;DHT22;49183;51.380;0.098;2023-04-25T15:16:47;12.80;38.80
63094;DHT22;49183;51.380;0.098;2023-04-25T15:19:14;13.10;39.40
63094;DHT22;49183;51.380;0.098;2023-04-25T15:21:42;13.40;39.10
63094;DHT22;49183;51.380;0.098;2023-04-25T15:24:10;13.70;38.00
63094;DHT22;49183;51.380;0.098;2023-04-25T15:26:38;13.90;37.60
63094;DHT22;49183;51.380;0.098;2023-04-25T15:29:06;14.30;37.40
63094;DHT22;49183;51.380;0.098;2023-04-25T15:31:34;14.50;37.20
63094;DHT22;49183;51.380;0.098;2023-04-25T15:34:02;14.70;36.40
63094;DHT22;49183;51.380;0.098;2023-04-25T15:36:29;14.80;36.30
63094;DHT22;49183;51.380;0.098;2023-04-25T15:38:58;14.90;36.10
63094;DHT22;49183;51.380;0.098;2023-04-25T15:41:26;15.10;36.10
63094;DHT22;49183;51.380;0.098;2023-04-25T15:43:53;15.20;36.20
63094;DHT22;49183;51.380;0.098;2023-04-25T15:46:21;15.10;35.60
63094;DHT22;49183;51.380;0.098;2023-04-25T15:48:50;14.60;34.90
63094;DHT22;49183;51.380;0.098;2023-04-25T15:51:18;14.10;37.10
63094;DHT22;49183;51.380;0.098;2023-04-25T15:53:45;13.80;38.30
63094;DHT22;49183;51.380;0.098;2023-04-25T17:13:24;13.60;39.00
63094;DHT22;49183;51.380;0.098;2023-04-25T17:15:58;14.10;38.60
63094;DHT22;49183;51.380;0.098;2023-04-25T17:18:27;14.40;38.00
63094;DHT22;49183;51.380;0.098;2023-04-25T17:20:55;14.50;37.20
63094;DHT22;49183;51.380;0.098;2023-04-25T17:23:22;14.70;37.00
63094;DHT22;49183;51.380;0.098;2023-04-25T17:25:50;14.90;36.80
63094;DHT22;49183;51.380;0.098;2023-04-25T17:28:18;15.30;36.40
63094;DHT22;49183;51.380;0.098;2023-04-25T17:30:45;15.60;36.40
63094;DHT22;49183;51.380;0.098;2023-04-25T17:33:13;15.90;35.70
63094;DHT22;49183;51.380;0.098;2023-04-25T17:35:41;16.10;35.60
63094;DHT22;49183;51.380;0.098;2023-04-25T17:38:08;16.30;35.60
63094;DHT22;49183;51.380;0.098;2023-04-25T17:40:36;16.40;35.60
63094;DHT22;49183;51.380;0.098;2023-04-25T17:43:04;16.40;35.30
63094;DHT22;49183;51.380;0.098;2023-04-25T17:45:32;16.60;35.10
63094;DHT22;49183;51.380;0.098;2023-04-25T17:48:01;16.60;34.80
63094;DHT22;49183;51.380;0.098;2023-04-25T17:50:30;16.40;34.80
63094;DHT22;49183;51.380;0.098;2023-04-25T17:52:59;16.10;34.60
63094;DHT22;49183;51.380;0.098;2023-04-25T17:55:29;15.80;34.80
63094;DHT22;49183;51.380;0.098;2023-04-25T17:57:57;15.50;34.80
63094;DHT22;49183;51.380;0.098;2023-04-25T18:00:24;15.10;34.70
63094;DHT22;49183;51.380;0.098;2023-04-25T18:02:52;14.90;34.80
63094;DHT22;49183;51.380;0.098;2023-04-25T18:05:20;14.90;35.10
63094;DHT22;49183;51.380;0.098;2023-04-25T18:07:48;15.10;35.30
63094;DHT22;49183;51.380;0.098;2023-04-25T18:10:15;15.20;35.10
63094;DHT22;49183;51.380;0.098;2023-04-25T18:12:43;15.30;35.20
63094;DHT22;49183;51.380;0.098;2023-04-25T18:15:11;15.50;34.80
63094;DHT22;49183;51.380;0.098;2023-04-25T18:17:39;15.50;34.60
63094;DHT22;49183;51.380;0.098;2023-04-25T18:20:09;15.30;34.30
63094;DHT22;49183;51.380;0.098;2023-04-25T18:22:41;15.10;34.30
63094;DHT22;49183;51.380;0.098;2023-04-25T18:25:09;14.80;34.40
63094;DHT22;49183;51.380;0.098;2023-04-25T18:27:38;14.60;34.90
63094;DHT22;49183;51.380;0.098;2023-04-25T18:30:07;14.30;34.80
63094;DHT22;49183;51.380;0.098;2023-04-25T18:32:36;14.00;34.90
63094;DHT22;49183;51.380;0.098;2023-04-25T18:35:04;13.90;35.20
63094;DHT22;49183;51.380;0.098;2023-04-25T18:37:32;13.80;35.30
63094;DHT22;49183;51.380;0.098;2023-04-25T18:39:59;13.60;35.30
63094;DHT22;49183;51.380;0.098;2023-04-25T18:42:38;13.20;35.50
